sensor_id;sensor_type;location;lat;lon;timestamp;pressure;altitude;pressure_sealevel;temperature;humidity
55418;BME280;41287;47.554;7.844;2022-12-16T00:02:20;96619.72;;;15.86;65.50
55418;BME280;41287;47.554;7.844;2022-12-16T00:04:45;96623.22;;;15.86;65.38
55418;BME280;41287;47.554;7.844;2022-12-16T00:07:10;96627.03;;;15.85;65.50
55418;BME280;41287;47.554;7.844;2022-12-16T00:09:38;96627.84;;;15.86;65.49
55418;BME280;41287;47.554;7.844;2022-12-16T00:12:03;96617.81;;;15.86;65.44
55418;BME280;41287;47.554;7.844;2022-12-16T00:14:29;96609.38;;;15.88;65.62
55418;BME280;41287;47.554;7.844;2022-12-16T00:16:54;96605.88;;;15.87;65.51
55418;BME280;41287;47.554;7.844;2022-12-16T00:19:20;96610.50;;;15.87;65.54
55418;BME280;41287;47.554;7.844;2022-12-16T00:21:45;96610.50;;;15.87;65.57
55418;BME280;41287;47.554;7.844;2022-12-16T00:24:10;96617.47;;;15.88;65.62
55418;BME280;41287;47.554;7.844;2022-12-16T00:26:37;96625.56;;;15.88;65.60
55418;BME280;41287;47.554;7.844;2022-12-16T00:29:04;96617.47;;;15.88;65.62
55418;BME280;41287;47.554;7.844;2022-12-16T00:31:30;96620.16;;;15.88;65.52
55418;BME280;41287;47.554;7.844;2022-12-16T00:33:56;96615.56;;;15.88;65.57
55418;BME280;41287;47.554;7.844;2022-12-16T00:36:22;96612.06;;;15.88;65.57
55418;BME280;41287;47.554;7.844;2022-12-16T00:38:47;96613.63;;;15.89;65.36
55418;BME280;41287;47.554;7.844;2022-12-16T00:41:13;96620.16;;;15.88;65.62
55418;BME280;41287;47.554;7.844;2022-12-16T00:43:38;96620.94;;;15.88;65.64
55418;BME280;41287;47.554;7.844;2022-12-16T00:46:06;96621.75;;;15.89;65.63
55418;BME280;41287;47.554;7.844;2022-12-16T00:48:33;96619.81;;;15.89;65.57
55418;BME280;41287;47.554;7.844;2022-12-16T00:50:59;96627.13;;;15.89;65.73
55418;BME280;41287;47.554;7.844;2022-12-16T00:53:24;96630.63;;;15.89;65.83
55418;BME280;41287;47.554;7.844;2022-12-16T00:55:50;96629.84;;;15.89;65.76
55418;BME280;41287;47.554;7.844;2022-12-16T00:58:16;96629.47;;;15.90;65.72
55418;BME280;41287;47.554;7.844;2022-12-16T01:00:41;96646.84;;;15.89;65.91
55418;BME280;41287;47.554;7.844;2022-12-16T01:03:07;96661.13;;;15.90;65.87
55418;BME280;41287;47.554;7.844;2022-12-16T01:05:32;96656.47;;;15.90;66.15
55418;BME280;41287;47.554;7.844;2022-12-16T01:07:58;96668.84;;;15.91;65.76
55418;BME280;41287;47.554;7.844;2022-12-16T01:10:24;96665.75;;;15.89;65.78
55418;BME280;41287;47.554;7.844;2022-12-16T01:12:50;96667.28;;;15.90;65.75
55418;BME280;41287;47.554;7.844;2022-12-16T01:15:16;96665.38;;;15.91;65.88
55418;BME280;41287;47.554;7.844;2022-12-16T01:17:42;96670.78;;;15.91;65.73
55418;BME280;41287;47.554;7.844;2022-12-16T01:20:08;96678.09;;;15.90;65.81
55418;BME280;41287;47.554;7.844;2022-12-16T01:22:34;96673.47;;;15.91;65.76
55418;BME280;41287;47.554;7.844;2022-12-16T01:25:00;96666.16;;;15.91;65.72
55418;BME280;41287;47.554;7.844;2022-12-16T01:27:26;96662.66;;;15.91;65.77
55418;BME280;41287;47.554;7.844;2022-12-16T01:29:54;96679.66;;;15.91;65.78
55418;BME280;41287;47.554;7.844;2022-12-16T01:32:20;96676.97;;;15.91;66.09
55418;BME280;41287;47.554;7.844;2022-12-16T01:34:52;96678.88;;;15.91;65.92
55418;BME280;41287;47.554;7.844;2022-12-16T01:37:18;96675.84;;;15.92;65.90
55418;BME280;41287;47.554;7.844;2022-12-16T01:39:45;96678.53;;;15.92;65.79
55418;BME280;41287;47.554;7.844;2022-12-16T01:42:14;96675.03;;;15.92;65.80
55418;BME280;41287;47.554;7.844;2022-12-16T01:44:42;96682.03;;;15.93;65.90
55418;BME280;41287;47.554;7.844;2022-12-16T01:47:14;96685.06;;;15.91;65.87
55418;BME280;41287;47.554;7.844;2022-12-16T01:50:03;96693.16;;;15.91;65.93
55418;BME280;41287;47.554;7.844;2022-12-16T01:52:38;96702.06;;;15.92;65.72
55418;BME280;41287;47.554;7.844;2022-12-16T01:55:06;96700.47;;;15.91;65.81
55418;BME280;41287;47.554;7.844;2022-12-16T01:57:37;96707.13;;;15.93;65.94
55418;BME280;41287;47.554;7.844;2022-12-16T02:00:05;96714.44;;;15.93;65.90
55418;BME280;41287;47.554;7.844;2022-12-16T02:02:34;96712.06;;;15.91;65.84
55418;BME280;41287;47.554;7.844;2022-12-16T02:05:00;96712.06;;;15.91;65.94
55418;BME280;41287;47.554;7.844;2022-12-16T02:08:10;96717.84;;;15.90;66.03
55418;BME280;41287;47.554;7.844;2022-12-16T02:25:56;96747.97;;;15.92;65.88
55418;BME280;41287;47.554;7.844;2022-12-16T02:28:35;96748.31;;;15.90;66.05
55418;BME280;41287;47.554;7.844;2022-12-16T02:31:36;96758.38;;;15.90;65.98
55418;BME280;41287;47.554;7.844;2022-12-16T02:34:23;96759.13;;;15.90;66.00
55418;BME280;41287;47.554;7.844;2022-12-16T02:39:35;96765.31;;;15.91;66.00
55418;BME280;41287;47.554;7.844;2022-12-16T02:45:00;96774.19;;;15.91;66.09
55418;BME280;41287;47.554;7.844;2022-12-16T02:47:27;96772.28;;;15.92;66.03
55418;BME280;41287;47.554;7.844;2022-12-16T02:49:53;96774.19;;;15.91;65.79
55418;BME280;41287;47.554;7.844;2022-12-16T02:52:28;96772.63;;;15.90;66.05
55418;BME280;41287;47.554;7.844;2022-12-16T02:55:09;96780.38;;;15.92;66.13
55418;BME280;41287;47.554;7.844;2022-12-16T02:57:48;96783.09;;;15.92;66.11
55418;BME280;41287;47.554;7.844;2022-12-16T03:00:22;96785.00;;;15.91;66.11
55418;BME280;41287;47.554;7.844;2022-12-16T03:02:59;96785.78;;;15.92;65.95
55418;BME280;41287;47.554;7.844;2022-12-16T03:05:38;96787.72;;;15.91;65.99
55418;BME280;41287;47.554;7.844;2022-12-16T03:08:08;96790.84;;;15.93;66.17
55418;BME280;41287;47.554;7.844;2022-12-16T03:10:47;96791.66;;;15.94;66.06
55418;BME280;41287;47.554;7.844;2022-12-16T03:13:16;96799.31;;;15.92;65.95
55418;BME280;41287;47.554;7.844;2022-12-16T03:15:46;96798.97;;;15.93;66.07
55418;BME280;41287;47.554;7.844;2022-12-16T03:18:12;96793.56;;;15.93;66.02
55418;BME280;41287;47.554;7.844;2022-12-16T03:20:46;96793.13;;;15.91;66.12
55418;BME280;41287;47.554;7.844;2022-12-16T03:23:19;96807.06;;;15.93;66.06
55418;BME280;41287;47.554;7.844;2022-12-16T03:25:48;96809.75;;;15.93;66.02
55418;BME280;41287;47.554;7.844;2022-12-16T03:28:47;96810.09;;;15.92;66.09
55418;BME280;41287;47.554;7.844;2022-12-16T03:31:38;96814.72;;;15.91;66.00
55418;BME280;41287;47.554;7.844;2022-12-16T03:34:16;96821.69;;;15.92;66.07
55418;BME280;41287;47.554;7.844;2022-12-16T03:36:49;96822.50;;;15.93;66.08
55418;BME280;41287;47.554;7.844;2022-12-16T03:39:18;96823.28;;;15.93;66.01
55418;BME280;41287;47.554;7.844;2022-12-16T03:41:46;96830.59;;;15.93;66.00
55418;BME280;41287;47.554;7.844;2022-12-16T03:44:13;96825.19;;;15.93;66.08
55418;BME280;41287;47.554;7.844;2022-12-16T03:46:39;96833.28;;;15.93;66.06
55418;BME280;41287;47.554;7.844;2022-12-16T03:49:04;96824.41;;;15.92;66.16
55418;BME280;41287;47.554;7.844;2022-12-16T03:51:30;96833.75;;;15.95;66.19
55418;BME280;41287;47.554;7.844;2022-12-16T03:53:55;96828.34;;;15.95;66.18
55418;BME280;41287;47.554;7.844;2022-12-16T03:56:22;96831.03;;;15.95;66.03
55418;BME280;41287;47.554;7.844;2022-12-16T03:58:50;96831.03;;;15.95;66.15
55418;BME280;41287;47.554;7.844;2022-12-16T04:01:15;96827.88;;;15.93;66.06
55418;BME280;41287;47.554;7.844;2022-12-16T04:03:40;96835.66;;;15.94;66.04
55418;BME280;41287;47.554;7.844;2022-12-16T04:06:06;96831.38;;;15.93;66.12
55418;BME280;41287;47.554;7.844;2022-12-16T04:08:31;96846.00;;;15.92;66.06
55418;BME280;41287;47.554;7.844;2022-12-16T04:10:57;96844.88;;;15.93;66.09
55418;BME280;41287;47.554;7.844;2022-12-16T04:13:41;96850.28;;;15.93;66.06
55418;BME280;41287;47.554;7.844;2022-12-16T04:16:26;96851.88;;;15.94;66.05
55418;BME280;41287;47.554;7.844;2022-12-16T04:19:24;96849.50;;;15.93;65.99
55418;BME280;41287;47.554;7.844;2022-12-16T04:22:16;96863.00;;;15.93;66.01
55418;BME280;41287;47.554;7.844;2022-12-16T04:25:15;96864.91;;;15.92;66.16
55418;BME280;41287;47.554;7.844;2022-12-16T04:27:42;96862.22;;;15.92;66.46
55418;BME280;41287;47.554;7.844;2022-12-16T04:30:14;96867.63;;;15.92;66.14
55418;BME280;41287;47.554;7.844;2022-12-16T04:32:51;96873.03;;;15.92;66.25
55418;BME280;41287;47.554;7.844;2022-12-16T04:35:37;96870.31;;;15.92;66.07
55418;BME280;41287;47.554;7.844;2022-12-16T04:38:21;96871.13;;;15.93;66.13
55418;BME280;41287;47.554;7.844;2022-12-16T04:41:05;96872.25;;;15.92;66.17
55418;BME280;41287;47.554;7.844;2022-12-16T04:43:49;96875.72;;;15.92;66.16
55418;BME280;41287;47.554;7.844;2022-12-16T04:46:33;96876.84;;;15.91;66.29
55418;BME280;41287;47.554;7.844;2022-12-16T04:49:17;96892.28;;;15.91;66.25
55418;BME280;41287;47.554;7.844;2022-12-16T04:52:01;96897.00;;;15.94;66.07
55418;BME280;41287;47.554;7.844;2022-12-16T04:54:45;96904.66;;;15.92;66.30
55418;BME280;41287;47.554;7.844;2022-12-16T04:57:31;96913.88;;;15.91;66.21
55418;BME280;41287;47.554;7.844;2022-12-16T05:00:15;96920.88;;;15.92;66.21
55418;BME280;41287;47.554;7.844;2022-12-16T05:02:59;96917.75;;;15.90;66.13
55418;BME280;41287;47.554;7.844;2022-12-16T05:06:02;96924.00;;;15.94;66.14
55418;BME280;41287;47.554;7.844;2022-12-16T05:08:46;96930.88;;;15.91;66.31
55418;BME280;41287;47.554;7.844;2022-12-16T05:11:30;96934.69;;;15.90;66.12
55418;BME280;41287;47.554;7.844;2022-12-16T05:14:16;96935.50;;;15.91;66.25
55418;BME280;41287;47.554;7.844;2022-12-16T05:17:00;96943.59;;;15.91;66.04
55418;BME280;41287;47.554;7.844;2022-12-16T05:19:44;96944.75;;;15.90;66.29
55418;BME280;41287;47.554;7.844;2022-12-16T05:22:27;96953.63;;;15.90;66.15
55418;BME280;41287;47.554;7.844;2022-12-16T05:25:11;96953.19;;;15.88;66.36
55418;BME280;41287;47.554;7.844;2022-12-16T05:27:55;96962.97;;;15.93;66.06
55418;BME280;41287;47.554;7.844;2022-12-16T05:30:41;96963.66;;;15.90;66.10
55418;BME280;41287;47.554;7.844;2022-12-16T05:33:25;96958.25;;;15.90;66.23
55418;BME280;41287;47.554;7.844;2022-12-16T05:36:09;96963.66;;;15.90;66.29
55418;BME280;41287;47.554;7.844;2022-12-16T05:38:53;96966.38;;;15.90;66.32
55418;BME280;41287;47.554;7.844;2022-12-16T05:41:37;96977.94;;;15.90;66.32
55418;BME280;41287;47.554;7.844;2022-12-16T05:44:21;96974.47;;;15.90;66.29
55418;BME280;41287;47.554;7.844;2022-12-16T05:47:06;96981.78;;;15.89;66.30
55418;BME280;41287;47.554;7.844;2022-12-16T05:49:52;96984.47;;;15.89;66.36
55418;BME280;41287;47.554;7.844;2022-12-16T05:52:36;96987.97;;;15.90;66.32
55418;BME280;41287;47.554;7.844;2022-12-16T05:55:20;96990.69;;;15.90;66.19
55418;BME280;41287;47.554;7.844;2022-12-16T05:58:04;96988.31;;;15.88;66.44
55418;BME280;41287;47.554;7.844;2022-12-16T06:00:48;96996.84;;;15.90;66.47
55418;BME280;41287;47.554;7.844;2022-12-16T06:03:31;96999.91;;;15.89;66.69
55418;BME280;41287;47.554;7.844;2022-12-16T06:06:15;97005.31;;;15.89;66.66
55418;BME280;41287;47.554;7.844;2022-12-16T06:09:01;97002.25;;;15.90;66.63
55418;BME280;41287;47.554;7.844;2022-12-16T06:11:45;97016.91;;;15.89;66.87
55418;BME280;41287;47.554;7.844;2022-12-16T06:14:29;97014.97;;;15.90;66.27
55418;BME280;41287;47.554;7.844;2022-12-16T06:17:14;97012.94;;;15.87;66.06
55418;BME280;41287;47.554;7.844;2022-12-16T06:19:58;97015.66;;;15.87;65.69
55418;BME280;41287;47.554;7.844;2022-12-16T06:22:41;97022.19;;;15.86;65.66
55418;BME280;41287;47.554;7.844;2022-12-16T06:25:28;97025.34;;;15.88;65.66
55418;BME280;41287;47.554;7.844;2022-12-16T06:28:13;97029.16;;;15.87;65.81
55418;BME280;41287;47.554;7.844;2022-12-16T06:30:59;97032.97;;;15.86;65.90
55418;BME280;41287;47.554;7.844;2022-12-16T06:33:45;97036.81;;;15.85;65.88
55418;BME280;41287;47.554;7.844;2022-12-16T06:36:29;97035.69;;;15.86;65.89
55418;BME280;41287;47.554;7.844;2022-12-16T06:39:15;97049.97;;;15.86;66.09
55418;BME280;41287;47.554;7.844;2022-12-16T06:41:59;97055.38;;;15.86;66.08
55418;BME280;41287;47.554;7.844;2022-12-16T06:44:45;97064.59;;;15.85;66.17
55418;BME280;41287;47.554;7.844;2022-12-16T06:47:29;97066.19;;;15.86;66.03
55418;BME280;41287;47.554;7.844;2022-12-16T06:50:13;97070.81;;;15.86;66.11
55418;BME280;41287;47.554;7.844;2022-12-16T06:52:56;97074.63;;;15.85;66.13
55418;BME280;41287;47.554;7.844;2022-12-16T06:55:48;97078.56;;;15.87;66.19
55418;BME280;41287;47.554;7.844;2022-12-16T06:58:32;97083.19;;;15.87;66.23
55418;BME280;41287;47.554;7.844;2022-12-16T07:01:16;97095.09;;;15.86;66.27
55418;BME280;41287;47.554;7.844;2022-12-16T07:04:00;97100.06;;;15.84;66.38
55418;BME280;41287;47.554;7.844;2022-12-16T07:06:46;97100.19;;;15.87;66.14
55418;BME280;41287;47.554;7.844;2022-12-16T07:09:30;97104.78;;;15.87;66.44
55418;BME280;41287;47.554;7.844;2022-12-16T07:12:14;97111.31;;;15.86;66.30
55418;BME280;41287;47.554;7.844;2022-12-16T07:14:58;97110.19;;;15.87;66.32
55418;BME280;41287;47.554;7.844;2022-12-16T07:17:44;97120.34;;;15.90;66.48
55418;BME280;41287;47.554;7.844;2022-12-16T07:20:28;97127.66;;;15.89;66.37
55418;BME280;41287;47.554;7.844;2022-12-16T07:23:12;97133.06;;;15.89;66.34
55418;BME280;41287;47.554;7.844;2022-12-16T07:25:56;97129.56;;;15.89;66.35
55418;BME280;41287;47.554;7.844;2022-12-16T07:28:40;97135.75;;;15.89;66.35
55418;BME280;41287;47.554;7.844;2022-12-16T07:31:24;97137.66;;;15.89;66.67
55418;BME280;41287;47.554;7.844;2022-12-16T07:34:08;97139.59;;;15.88;66.28
55418;BME280;41287;47.554;7.844;2022-12-16T07:36:52;97154.22;;;15.87;66.47
55418;BME280;41287;47.554;7.844;2022-12-16T07:39:36;97148.81;;;15.87;66.56
55418;BME280;41287;47.554;7.844;2022-12-16T07:42:20;97162.31;;;15.87;66.56
55418;BME280;41287;47.554;7.844;2022-12-16T07:45:04;97159.59;;;15.87;66.56
55418;BME280;41287;47.554;7.844;2022-12-16T07:47:49;97169.63;;;15.87;66.68
55418;BME280;41287;47.554;7.844;2022-12-16T07:50:34;97166.94;;;15.87;66.72
55418;BME280;41287;47.554;7.844;2022-12-16T07:53:19;97175.03;;;15.87;66.66
55418;BME280;41287;47.554;7.844;2022-12-16T07:56:03;97173.91;;;15.88;66.74
55418;BME280;41287;47.554;7.844;2022-12-16T07:58:48;97182.00;;;15.88;66.74
55418;BME280;41287;47.554;7.844;2022-12-16T08:01:42;97186.63;;;15.87;66.70
55418;BME280;41287;47.554;7.844;2022-12-16T08:04:25;97192.03;;;15.87;66.62
55418;BME280;41287;47.554;7.844;2022-12-16T08:07:09;97197.09;;;15.89;66.66
55418;BME280;41287;47.554;7.844;2022-12-16T08:09:54;97202.50;;;15.89;66.70
55418;BME280;41287;47.554;7.844;2022-12-16T08:12:38;97204.41;;;15.88;66.61
55418;BME280;41287;47.554;7.844;2022-12-16T08:15:22;97209.81;;;15.88;66.74
55418;BME280;41287;47.554;7.844;2022-12-16T08:18:05;97219.03;;;15.87;66.76
55418;BME280;41287;47.554;7.844;2022-12-16T08:20:49;97217.59;;;15.90;66.62
55418;BME280;41287;47.554;7.844;2022-12-16T08:23:33;97224.13;;;15.89;66.58
55418;BME280;41287;47.554;7.844;2022-12-16T08:26:17;97224.13;;;15.89;66.67
55418;BME280;41287;47.554;7.844;2022-12-16T08:29:01;97226.81;;;15.89;66.77
55418;BME280;41287;47.554;7.844;2022-12-16T08:31:45;97226.34;;;15.87;66.74
55418;BME280;41287;47.554;7.844;2022-12-16T08:34:29;97237.16;;;15.87;66.67
55418;BME280;41287;47.554;7.844;2022-12-16T08:37:14;97243.81;;;15.89;66.63
55418;BME280;41287;47.554;7.844;2022-12-16T08:40:00;97245.72;;;15.89;66.62
55418;BME280;41287;47.554;7.844;2022-12-16T08:42:44;97246.06;;;15.87;66.77
55418;BME280;41287;47.554;7.844;2022-12-16T08:45:28;97256.84;;;15.87;66.78
55418;BME280;41287;47.554;7.844;2022-12-16T08:48:14;97258.78;;;15.87;66.75
55418;BME280;41287;47.554;7.844;2022-12-16T08:51:05;97260.69;;;15.86;66.75
55418;BME280;41287;47.554;7.844;2022-12-16T08:53:50;97260.69;;;15.86;66.80
55418;BME280;41287;47.554;7.844;2022-12-16T08:56:34;97262.25;;;15.87;66.69
55418;BME280;41287;47.554;7.844;2022-12-16T08:59:18;97258.78;;;15.87;66.72
55418;BME280;41287;47.554;7.844;2022-12-16T09:02:04;97276.88;;;15.86;66.84
55418;BME280;41287;47.554;7.844;2022-12-16T09:04:48;97289.28;;;15.87;66.77
55418;BME280;41287;47.554;7.844;2022-12-16T09:07:32;97282.28;;;15.86;66.70
55418;BME280;41287;47.554;7.844;2022-12-16T09:10:18;97287.38;;;15.88;66.52
55418;BME280;41287;47.554;7.844;2022-12-16T09:13:13;97289.28;;;15.87;66.68
55418;BME280;41287;47.554;7.844;2022-12-16T09:15:58;97298.50;;;15.86;66.72
55418;BME280;41287;47.554;7.844;2022-12-16T09:18:41;97305.03;;;15.85;66.87
55418;BME280;41287;47.554;7.844;2022-12-16T09:21:28;97310.88;;;15.87;66.69
55418;BME280;41287;47.554;7.844;2022-12-16T09:24:14;97306.59;;;15.86;66.80
55418;BME280;41287;47.554;7.844;2022-12-16T09:27:00;97308.50;;;15.86;66.74
55418;BME280;41287;47.554;7.844;2022-12-16T09:29:44;97315.81;;;15.85;66.71
55418;BME280;41287;47.554;7.844;2022-12-16T09:32:27;97317.72;;;15.85;66.72
55418;BME280;41287;47.554;7.844;2022-12-16T09:35:12;97319.78;;;15.88;66.78
55418;BME280;41287;47.554;7.844;2022-12-16T09:37:55;97325.50;;;15.86;66.75
55418;BME280;41287;47.554;7.844;2022-12-16T09:40:40;97326.63;;;15.85;66.76
55418;BME280;41287;47.554;7.844;2022-12-16T09:44:02;97332.34;;;15.84;66.72
55418;BME280;41287;47.554;7.844;2022-12-16T09:47:04;97335.06;;;15.84;66.86
55418;BME280;41287;47.554;7.844;2022-12-16T09:49:52;97332.34;;;15.84;66.72
55418;BME280;41287;47.554;7.844;2022-12-16T09:52:46;97332.34;;;15.84;66.69
55418;BME280;41287;47.554;7.844;2022-12-16T09:55:39;97343.16;;;15.84;66.88
55418;BME280;41287;47.554;7.844;2022-12-16T09:58:26;97350.16;;;15.85;66.86
55418;BME280;41287;47.554;7.844;2022-12-16T10:01:12;97346.66;;;15.84;66.79
55418;BME280;41287;47.554;7.844;2022-12-16T10:03:57;97354.75;;;15.84;66.72
55418;BME280;41287;47.554;7.844;2022-12-16T10:06:46;97357.47;;;15.84;66.87
55418;BME280;41287;47.554;7.844;2022-12-16T10:15:32;97366.03;;;15.86;66.63
55418;BME280;41287;47.554;7.844;2022-12-16T10:21:10;97359.38;;;15.84;66.80
55418;BME280;41287;47.554;7.844;2022-12-16T10:27:23;97355.88;;;15.83;66.92
55418;BME280;41287;47.554;7.844;2022-12-16T10:30:13;97355.88;;;15.83;66.80
55418;BME280;41287;47.554;7.844;2022-12-16T10:32:58;97351.28;;;15.84;66.70
55418;BME280;41287;47.554;7.844;2022-12-16T10:35:50;97354.31;;;15.82;66.55
55418;BME280;41287;47.554;7.844;2022-12-16T10:38:42;97357.81;;;15.83;66.50
55418;BME280;41287;47.554;7.844;2022-12-16T10:41:31;97358.06;;;15.90;66.39
55418;BME280;41287;47.554;7.844;2022-12-16T10:44:24;97343.88;;;15.93;66.33
55418;BME280;41287;47.554;7.844;2022-12-16T10:47:10;97341.63;;;15.95;66.23
55418;BME280;41287;47.554;7.844;2022-12-16T10:49:55;97344.22;;;15.91;66.23
55418;BME280;41287;47.554;7.844;2022-12-16T10:55:50;97354.13;;;15.87;66.32
55418;BME280;41287;47.554;7.844;2022-12-16T10:58:55;97354.13;;;15.87;66.63
55418;BME280;41287;47.554;7.844;2022-12-16T11:02:00;97353.31;;;15.87;66.52
55418;BME280;41287;47.554;7.844;2022-12-16T11:04:47;97356.81;;;15.87;66.54
55418;BME280;41287;47.554;7.844;2022-12-16T11:07:37;97356.03;;;15.87;66.53
55418;BME280;41287;47.554;7.844;2022-12-16T11:10:24;97357.94;;;15.86;66.54
55418;BME280;41287;47.554;7.844;2022-12-16T11:16:27;97352.06;;;15.84;66.53
55418;BME280;41287;47.554;7.844;2022-12-16T11:19:23;97347.44;;;15.85;66.69
55418;BME280;41287;47.554;7.844;2022-12-16T11:22:22;97352.06;;;15.84;66.49
55418;BME280;41287;47.554;7.844;2022-12-16T11:25:14;97355.56;;;15.85;66.29
55418;BME280;41287;47.554;7.844;2022-12-16T11:28:14;97348.25;;;15.85;66.67
55418;BME280;41287;47.554;7.844;2022-12-16T11:31:05;97355.56;;;15.85;66.56
55418;BME280;41287;47.554;7.844;2022-12-16T11:33:52;97348.56;;;15.84;66.58
55418;BME280;41287;47.554;7.844;2022-12-16T11:36:37;97360.97;;;15.85;66.66
55418;BME280;41287;47.554;7.844;2022-12-16T11:39:23;97360.16;;;15.84;66.74
55418;BME280;41287;47.554;7.844;2022-12-16T11:42:15;97365.56;;;15.84;66.69
55418;BME280;41287;47.554;7.844;2022-12-16T11:45:02;97370.97;;;15.84;66.70
55418;BME280;41287;47.554;7.844;2022-12-16T11:47:51;97379.06;;;15.84;66.73
55418;BME280;41287;47.554;7.844;2022-12-16T11:50:41;97375.59;;;15.84;66.58
55418;BME280;41287;47.554;7.844;2022-12-16T11:53:45;97378.28;;;15.84;66.72
55418;BME280;41287;47.554;7.844;2022-12-16T11:56:33;97372.88;;;15.84;66.75
55418;BME280;41287;47.554;7.844;2022-12-16T12:02:27;97379.88;;;15.85;66.66
55418;BME280;41287;47.554;7.844;2022-12-16T12:05:14;97381.78;;;15.84;66.81
55418;BME280;41287;47.554;7.844;2022-12-16T12:08:12;97387.53;;;15.83;66.73
55418;BME280;41287;47.554;7.844;2022-12-16T12:11:17;97391.78;;;15.84;66.78
55418;BME280;41287;47.554;7.844;2022-12-16T12:17:30;97397.19;;;15.84;66.83
55418;BME280;41287;47.554;7.844;2022-12-16T12:20:28;97394.84;;;15.82;66.73
55418;BME280;41287;47.554;7.844;2022-12-16T12:26:32;97401.81;;;15.83;66.69
55418;BME280;41287;47.554;7.844;2022-12-16T12:29:37;97406.09;;;15.84;66.84
55418;BME280;41287;47.554;7.844;2022-12-16T12:32:51;97400.25;;;15.82;66.70
55418;BME280;41287;47.554;7.844;2022-12-16T12:36:03;97401.38;;;15.81;66.77
55418;BME280;41287;47.554;7.844;2022-12-16T12:48:07;97411.84;;;15.83;66.72
55418;BME280;41287;47.554;7.844;2022-12-16T12:56:58;97426.91;;;15.84;66.66
55418;BME280;41287;47.554;7.844;2022-12-16T12:59:58;97435.38;;;15.82;66.80
55418;BME280;41287;47.554;7.844;2022-12-16T13:03:03;97426.91;;;15.84;66.70
55418;BME280;41287;47.554;7.844;2022-12-16T13:05:48;97439.63;;;15.83;66.79
55418;BME280;41287;47.554;7.844;2022-12-16T13:11:21;97438.84;;;15.83;66.66
55418;BME280;41287;47.554;7.844;2022-12-16T13:17:21;97449.66;;;15.83;66.81
55418;BME280;41287;47.554;7.844;2022-12-16T13:20:44;97448.06;;;15.82;66.74
55418;BME280;41287;47.554;7.844;2022-12-16T13:23:31;97456.63;;;15.84;66.75
55418;BME280;41287;47.554;7.844;2022-12-16T13:26:17;97463.16;;;15.83;66.82
55418;BME280;41287;47.554;7.844;2022-12-16T13:32:15;97463.16;;;15.83;66.74
55418;BME280;41287;47.554;7.844;2022-12-16T13:37:55;97472.03;;;15.83;66.85
55418;BME280;41287;47.554;7.844;2022-12-16T13:40:55;97467.78;;;15.82;66.88
55418;BME280;41287;47.554;7.844;2022-12-16T13:43:55;97486.69;;;15.82;66.71
55418;BME280;41287;47.554;7.844;2022-12-16T13:46:42;97484.78;;;15.83;66.81
55418;BME280;41287;47.554;7.844;2022-12-16T13:49:40;97477.00;;;15.81;66.73
55418;BME280;41287;47.554;7.844;2022-12-16T13:55:34;97485.09;;;15.81;66.72
55418;BME280;41287;47.554;7.844;2022-12-16T13:58:35;97502.91;;;15.82;66.83
55418;BME280;41287;47.554;7.844;2022-12-16T14:01:48;97506.72;;;15.81;66.84
55418;BME280;41287;47.554;7.844;2022-12-16T14:04:44;97510.22;;;15.82;66.87
55418;BME280;41287;47.554;7.844;2022-12-16T14:07:33;97511.00;;;15.82;66.80
55418;BME280;41287;47.554;7.844;2022-12-16T14:10:30;97514.81;;;15.81;66.74
55418;BME280;41287;47.554;7.844;2022-12-16T14:13:32;97522.91;;;15.81;66.69
55418;BME280;41287;47.554;7.844;2022-12-16T14:19:34;97538.00;;;15.82;66.81
55418;BME280;41287;47.554;7.844;2022-12-16T14:25:16;97545.31;;;15.82;66.82
55418;BME280;41287;47.554;7.844;2022-12-16T14:28:07;97551.53;;;15.82;66.79
55418;BME280;41287;47.554;7.844;2022-12-16T14:31:10;97553.44;;;15.82;66.79
55418;BME280;41287;47.554;7.844;2022-12-16T14:33:58;97558.47;;;15.83;66.73
55418;BME280;41287;47.554;7.844;2022-12-16T14:36:44;97560.41;;;15.83;66.82
55418;BME280;41287;47.554;7.844;2022-12-16T14:39:30;97548.03;;;15.82;66.75
55418;BME280;41287;47.554;7.844;2022-12-16T14:42:30;97558.84;;;15.82;66.73
55418;BME280;41287;47.554;7.844;2022-12-16T14:48:31;97577.75;;;15.82;66.89
55418;BME280;41287;47.554;7.844;2022-12-16T14:51:28;97575.03;;;15.82;66.76
55418;BME280;41287;47.554;7.844;2022-12-16T14:54:16;97583.94;;;15.82;66.72
55418;BME280;41287;47.554;7.844;2022-12-16T14:57:03;97588.53;;;15.82;66.46
55418;BME280;41287;47.554;7.844;2022-12-16T14:59:58;97592.38;;;15.80;66.48
55418;BME280;41287;47.554;7.844;2022-12-16T15:02:44;97602.84;;;15.82;66.54
55418;BME280;41287;47.554;7.844;2022-12-16T15:05:32;97612.84;;;15.82;66.52
55418;BME280;41287;47.554;7.844;2022-12-16T15:08:18;97611.75;;;15.83;66.60
55418;BME280;41287;47.554;7.844;2022-12-16T15:11:04;97619.84;;;15.83;66.62
55418;BME280;41287;47.554;7.844;2022-12-16T15:13:54;97622.88;;;15.81;66.57
55418;BME280;41287;47.554;7.844;2022-12-16T15:16:41;97622.56;;;15.83;66.55
55418;BME280;41287;47.554;7.844;2022-12-16T15:19:37;97627.16;;;15.82;66.46
55418;BME280;41287;47.554;7.844;2022-12-16T15:22:23;97622.56;;;15.83;66.19
55418;BME280;41287;47.554;7.844;2022-12-16T15:25:17;97631.78;;;15.82;66.59
55418;BME280;41287;47.554;7.844;2022-12-16T15:28:02;97634.13;;;15.83;66.65
55418;BME280;41287;47.554;7.844;2022-12-16T15:30:46;97644.16;;;15.83;66.63
55418;BME280;41287;47.554;7.844;2022-12-16T15:33:36;97648.78;;;15.82;66.59
55418;BME280;41287;47.554;7.844;2022-12-16T15:36:30;97650.69;;;15.82;66.65
55418;BME280;41287;47.554;7.844;2022-12-16T15:42:19;97658.78;;;15.82;66.61
55418;BME280;41287;47.554;7.844;2022-12-16T15:45:03;97664.97;;;15.82;66.67
55418;BME280;41287;47.554;7.844;2022-12-16T15:47:49;97673.88;;;15.83;66.48
55418;BME280;41287;47.554;7.844;2022-12-16T15:50:33;97670.38;;;15.82;66.56
55418;BME280;41287;47.554;7.844;2022-12-16T15:53:36;97669.13;;;15.79;66.63
55418;BME280;41287;47.554;7.844;2022-12-16T15:56:26;97675.78;;;15.82;66.73